Time;durP1;ratioP1;P1;durP2;ratioP2;P2;SDS_P1;SDS_P2;PMS_P1;PMS_P2;Temp;Humidity;BMP_temperature;BMP_pressure;BME280_temperature;BME280_humidity;BME280_pressure;Samples;Min_cycle;Max_cycle;Signal;HPM_P1;HPM_P2
2022/08/27 00:02:08;;;;;;;13.48;11.30;;;20.10;99.90;;;-141.84;86.36;19480.53;5030208;28;20271;-63
2022/08/27 00:04:39;;;;;;;12.82;11.40;;;20.10;99.90;;;-141.84;86.67;19468.34;5030885;28;20198;-61
2022/08/27 00:07:09;;;;;;;12.70;11.40;;;20.10;99.90;;;-141.84;86.83;19486.66;5029828;28;20236;-62
2022/08/27 00:09:37;;;;;;;12.80;11.50;;;20.10;99.90;;;-141.84;86.89;19474.44;5029831;28;20250;-61
2022/08/27 00:12:07;;;;;;;13.77;12.35;;;20.10;99.90;;;-141.84;87.28;19454.13;5029869;28;20646;-62
2022/08/27 00:14:38;;;;;;;15.30;13.73;;;20.00;99.90;;;-141.84;86.52;19456.16;5030080;28;20249;-61
2022/08/27 00:17:08;;;;;;;16.98;13.30;;;20.10;99.90;;;-141.84;86.63;19460.22;5029831;28;20230;-61
2022/08/27 00:19:36;;;;;;;17.25;15.55;;;20.10;99.90;;;-141.84;87.28;19464.28;5030592;28;20237;-61
2022/08/27 00:22:07;;;;;;;18.23;16.33;;;20.10;99.90;;;-141.84;86.61;19470.38;5029716;28;20323;-61
2022/08/27 00:24:35;;;;;;;17.65;15.70;;;20.10;99.90;;;-141.84;86.46;19480.53;5029933;28;20611;-61
2022/08/27 00:27:11;;;;;;;16.98;15.27;;;20.10;99.90;;;-141.84;86.77;19482.56;5029682;28;20269;-61
2022/08/27 00:29:41;;;;;;;21.15;16.25;;;20.10;99.90;;;-141.84;86.32;19456.16;5028662;28;20936;-63
2022/08/27 00:32:09;;;;;;;15.95;14.32;;;20.20;99.90;;;-141.84;87.19;19439.91;5033210;28;20213;-63
2022/08/27 00:34:37;;;;;;;16.27;14.57;;;20.10;99.90;;;-141.84;87.41;19470.38;5034144;28;20210;-62
2022/08/27 00:37:06;;;;;;;18.13;16.15;;;20.10;99.90;;;-141.84;85.33;19441.94;5033428;28;20229;-62
2022/08/27 00:39:35;;;;;;;17.73;15.85;;;20.20;99.90;;;-141.84;85.93;19439.91;5033188;28;20304;-62
2022/08/27 00:42:05;;;;;;;18.60;15.05;;;20.20;99.90;;;-141.84;85.76;19446.00;5033415;28;20371;-61
2022/08/27 00:44:34;;;;;;;16.80;15.10;;;20.10;99.90;;;-141.84;86.86;19441.94;5033300;28;20248;-61
2022/08/27 00:47:12;;;;;;;17.33;15.35;;;20.10;99.90;;;-141.84;87.51;19409.41;5033147;28;20304;-62
2022/08/27 00:49:45;;;;;;;16.17;14.45;;;20.10;99.90;;;-141.84;88.17;19405.34;5033633;28;20689;-61
2022/08/27 00:52:21;;;;;;;18.88;15.82;;;20.10;99.90;;;-141.84;86.73;19411.44;5033146;28;20217;-62
2022/08/27 00:54:54;;;;;;;17.85;15.38;;;20.10;99.90;;;-141.84;87.01;19413.47;5032953;28;20292;-60
2022/08/27 00:57:22;;;;;;;20.25;16.83;;;20.10;99.90;;;-141.84;87.72;19366.75;5033020;28;20253;-62
2022/08/27 00:59:51;;;;;;;17.38;15.55;;;20.00;99.90;;;-141.84;88.47;19385.03;5032972;28;20252;-61
2022/08/27 01:02:24;;;;;;;17.58;15.82;;;20.00;99.90;;;-141.84;89.07;19350.50;5032874;28;20229;-61
2022/08/27 01:04:59;;;;;;;20.58;15.70;;;20.00;99.90;;;-141.84;89.42;19358.63;5033801;28;20260;-61
2022/08/27 01:07:32;;;;;;;20.77;17.17;;;19.90;99.90;;;-141.84;89.60;19342.34;5033276;28;20248;-61
2022/08/27 01:10:06;;;;;;;18.65;16.65;;;19.80;99.90;;;-141.84;89.50;19317.97;5032654;28;20260;-61
2022/08/27 01:12:36;;;;;;;20.95;17.75;;;19.90;99.90;;;-141.84;89.84;19338.28;5032865;28;20297;-62
2022/08/27 01:15:09;;;;;;;18.55;16.25;;;19.90;99.90;;;-141.84;89.48;19370.81;5032847;28;20241;-61
2022/08/27 01:17:44;;;;;;;20.55;18.20;;;19.90;99.90;;;-141.84;89.40;19328.13;5032656;28;20618;-62
2022/08/27 01:20:18;;;;;;;19.70;17.80;;;19.90;99.90;;;-141.84;89.65;19358.63;5032770;28;20277;-62
2022/08/27 01:22:59;;;;;;;21.33;18.30;;;19.90;99.90;;;-141.84;89.53;19279.38;5032785;28;20240;-62
2022/08/27 01:25:30;;;;;;;20.58;18.33;;;19.90;99.90;;;-141.84;89.50;19317.97;5033658;28;20272;-62
2022/08/27 01:28:01;;;;;;;22.08;19.77;;;19.90;99.90;;;-141.84;88.86;19313.91;5033672;28;20261;-62
2022/08/27 01:30:31;;;;;;;22.00;19.02;;;20.00;99.90;;;-141.84;86.77;19358.63;5032645;28;20230;-62
2022/08/27 01:32:59;;;;;;;18.92;17.13;;;20.00;99.90;;;-141.84;87.35;19356.59;5032239;28;20311;-62
2022/08/27 01:35:27;;;;;;;20.35;17.60;;;20.00;99.90;;;-141.84;88.10;19326.09;5032420;28;20689;-62
2022/08/27 01:37:56;;;;;;;20.45;17.98;;;20.00;99.90;;;-141.84;87.30;19330.16;5032891;28;20268;-61
2022/08/27 01:40:25;;;;;;;19.15;16.65;;;20.00;99.90;;;-141.84;87.19;19397.22;5032650;28;20225;-61
2022/08/27 01:42:57;;;;;;;19.95;17.85;;;20.00;99.90;;;-141.84;87.81;19330.16;5032275;28;20238;-62
2022/08/27 01:45:29;;;;;;;18.17;16.30;;;19.90;99.90;;;-141.84;88.08;19315.94;5032255;28;20230;-62
2022/08/27 01:47:59;;;;;;;19.50;17.50;;;20.10;99.90;;;-141.84;88.06;19291.56;5032212;28;20221;-63
2022/08/27 01:50:31;;;;;;;19.63;17.15;;;20.00;99.90;;;-141.84;87.58;19315.94;5032145;28;20303;-61
2022/08/27 01:53:04;;;;;;;18.25;16.35;;;20.10;99.90;;;-141.84;87.71;19301.72;5031775;28;20233;-61
2022/08/27 01:55:32;;;;;;;19.38;17.33;;;20.10;99.90;;;-141.84;87.76;19326.09;5032128;28;20567;-60
2022/08/27 01:58:02;;;;;;;18.90;16.80;;;20.10;99.90;;;-141.84;87.42;19340.31;5032079;28;20303;-62
2022/08/27 02:00:36;;;;;;;16.63;14.85;;;20.10;99.90;;;-141.84;87.65;19287.50;5031937;28;20705;-61
2022/08/27 02:03:06;;;;;;;18.95;16.65;;;20.00;99.90;;;-141.84;87.55;19291.56;5032185;28;20225;-61
2022/08/27 02:05:35;;;;;;;19.50;17.50;;;20.10;99.90;;;-141.84;87.62;19322.03;5031736;28;20260;-61
2022/08/27 02:08:14;;;;;;;19.38;17.45;;;20.00;99.90;;;-141.84;86.14;19317.97;5032077;28;20186;-62
2022/08/27 02:10:45;;;;;;;16.20;14.60;;;20.00;99.90;;;-141.84;86.41;19309.84;5031946;28;20210;-61
2022/08/27 02:13:16;;;;;;;18.75;16.55;;;20.00;99.90;;;-141.84;86.46;19336.25;5031878;28;20279;-62
2022/08/27 02:15:45;;;;;;;17.45;15.52;;;20.00;99.90;;;-141.84;86.87;19301.72;5031641;28;20737;-61
2022/08/27 02:18:15;;;;;;;18.60;16.40;;;20.00;99.90;;;-141.84;87.35;19309.84;5031810;28;20260;-61
2022/08/27 02:20:44;;;;;;;18.98;16.95;;;20.00;99.90;;;-141.84;86.38;19338.28;5031742;28;20226;-62
2022/08/27 02:23:13;;;;;;;17.60;15.68;;;19.90;99.90;;;-141.84;86.05;19309.84;5031702;28;20209;-61
2022/08/27 02:25:41;;;;;;;17.35;15.55;;;20.00;99.90;;;-141.84;86.62;19317.97;5032010;28;20264;-61
2022/08/27 02:28:10;;;;;;;17.45;14.98;;;20.00;99.90;;;-141.84;87.47;19297.66;5031431;28;20261;-63
2022/08/27 02:30:40;;;;;;;18.70;16.80;;;20.00;99.90;;;-141.84;86.35;19328.13;5031413;28;20226;-61
2022/08/27 02:33:09;;;;;;;18.30;16.25;;;20.10;99.90;;;-141.84;85.91;19311.88;5031515;28;20284;-62
2022/08/27 02:35:39;;;;;;;18.50;16.55;;;20.00;99.90;;;-141.84;86.12;19273.28;5031452;28;20264;-61
2022/08/27 02:38:08;;;;;;;19.67;17.48;;;20.00;99.90;;;-141.84;83.20;19366.75;5031350;28;20175;-62
2022/08/27 02:40:37;;;;;;;19.27;17.25;;;20.00;99.90;;;-141.84;83.24;19342.34;5031837;28;20224;-62
2022/08/27 02:43:05;;;;;;;19.90;16.95;;;20.00;99.90;;;-141.84;83.67;19344.41;5031384;28;20275;-62
2022/08/27 02:45:35;;;;;;;20.50;15.63;;;20.00;99.90;;;-141.84;83.50;19383.00;5031048;28;20225;-62
2022/08/27 02:48:07;;;;;;;17.35;15.55;;;20.00;99.90;;;-141.84;83.28;19405.34;5031235;28;20732;-62
2022/08/27 02:50:36;;;;;;;19.95;16.95;;;20.00;99.90;;;-141.84;82.61;19399.25;5031087;28;20241;-61
2022/08/27 02:53:06;;;;;;;17.95;15.63;;;20.00;99.90;;;-141.84;82.78;19399.25;5030630;28;20198;-62
2022/08/27 02:55:35;;;;;;;19.48;16.13;;;20.10;99.90;;;-141.84;82.17;19413.47;5031742;28;20214;-60
2022/08/27 02:58:04;;;;;;;20.05;15.90;;;20.10;99.90;;;-141.84;81.34;19401.28;5030782;28;20610;-62
2022/08/27 03:00:33;;;;;;;21.77;17.98;;;20.10;99.90;;;-141.84;80.52;19482.56;5030794;28;20254;-63
2022/08/27 03:03:03;;;;;;;19.52;17.05;;;20.20;99.90;;;-141.84;80.74;19460.22;5031010;28;20225;-62
2022/08/27 03:05:32;;;;;;;21.33;17.23;;;20.20;99.90;;;-141.84;80.62;19460.22;5031202;28;20230;-61
2022/08/27 03:08:00;;;;;;;18.38;15.73;;;20.20;99.90;;;-141.84;81.10;19421.63;5031190;28;20198;-62
2022/08/27 03:10:29;;;;;;;18.58;15.98;;;20.20;99.90;;;-141.84;81.90;19403.31;5031277;28;20198;-63
2022/08/27 03:12:58;;;;;;;21.33;17.80;;;20.20;99.90;;;-141.84;81.23;19452.09;5030699;28;20222;-61
2022/08/27 03:15:26;;;;;;;19.50;17.00;;;20.20;99.90;;;-141.84;80.26;19488.69;5030663;28;20615;-61
2022/08/27 03:20:44;;;;;;;23.45;17.70;;;20.30;99.90;;;-141.84;80.99;19448.03;5030545;28;20225;-62
2022/08/27 03:23:14;;;;;;;20.10;17.88;;;20.20;99.90;;;-141.84;80.84;19466.31;5030535;28;20236;-62
2022/08/27 03:25:48;;;;;;;20.67;17.73;;;20.20;99.90;;;-141.84;81.53;19423.66;5030714;28;20225;-61
2022/08/27 03:28:16;;;;;;;19.90;17.75;;;20.20;99.90;;;-141.84;81.05;19425.69;5030526;28;20268;-62
2022/08/27 03:30:52;;;;;;;19.58;16.75;;;20.10;99.90;;;-141.84;80.86;19466.31;5030653;28;20248;-62
2022/08/27 03:33:22;;;;;;;17.45;15.55;;;20.10;99.90;;;-141.84;82.37;19417.56;5030769;28;20317;-62
2022/08/27 03:35:51;;;;;;;20.88;17.17;;;20.00;99.90;;;-141.84;82.00;19376.91;5030669;28;20225;-61
2022/08/27 03:38:20;;;;;;;16.80;15.10;;;20.00;99.90;;;-141.84;81.88;19387.06;5030477;28;20283;-62
2022/08/27 03:40:49;;;;;;;16.52;14.85;;;20.00;99.90;;;-141.84;83.09;19374.88;5030867;28;20205;-61
2022/08/27 03:43:20;;;;;;;17.10;15.38;;;19.90;99.90;;;-141.84;81.52;19380.97;5030461;28;20713;-62
2022/08/27 03:45:49;;;;;;;16.63;14.82;;;19.90;99.90;;;-141.84;81.60;19368.78;5030329;28;20272;-61
2022/08/27 03:48:30;;;;;;;19.20;16.45;;;19.90;99.90;;;-141.84;82.39;19364.72;5030639;28;20226;-62
2022/08/27 03:51:05;;;;;;;18.92;14.43;;;19.90;99.90;;;-141.84;82.65;19354.56;5030287;28;20241;-61
2022/08/27 03:53:35;;;;;;;16.75;14.88;;;19.90;99.90;;;-141.84;83.84;19326.09;5030149;28;20221;-62
2022/08/27 03:56:05;;;;;;;17.88;14.18;;;19.80;99.90;;;-141.84;84.09;19317.97;5030029;28;20210;-62
2022/08/27 03:58:33;;;;;;;17.20;15.05;;;19.80;99.90;;;-141.84;84.28;19287.50;5030703;28;20210;-61
2022/08/27 04:01:02;;;;;;;21.92;16.33;;;19.80;99.90;;;-141.84;83.96;19322.03;5030403;28;20287;-61
2022/08/27 04:03:30;;;;;;;18.17;15.73;;;19.80;99.90;;;-141.84;83.43;19287.50;5030447;28;20320;-61
2022/08/27 04:06:00;;;;;;;17.75;15.57;;;19.80;99.90;;;-141.84;83.10;19309.84;5032145;28;20334;-60
2022/08/27 04:08:29;;;;;;;19.58;15.43;;;19.70;99.90;;;-141.84;82.40;19330.16;5033898;28;20657;-61
2022/08/27 04:10:58;;;;;;;15.80;14.13;;;19.70;99.90;;;-141.84;82.65;19311.88;5033778;28;20251;-60
2022/08/27 04:13:26;;;;;;;15.35;13.75;;;19.70;99.90;;;-141.84;83.26;19307.81;5034644;28;20556;-61
2022/08/27 04:15:55;;;;;;;17.55;14.48;;;19.70;99.90;;;-141.84;82.56;19322.03;5033865;28;20296;-61
2022/08/27 04:18:23;;;;;;;15.43;13.82;;;19.70;99.90;;;-141.84;80.98;19380.97;5033950;28;20725;-63
2022/08/27 04:20:52;;;;;;;17.88;12.55;;;19.70;99.90;;;-141.84;81.22;19366.75;5033716;28;20720;-61
2022/08/27 04:23:22;;;;;;;14.25;11.63;;;19.70;99.90;;;-141.84;82.59;19334.22;5033758;28;20267;-62
2022/08/27 04:25:51;;;;;;;14.48;12.27;;;19.70;99.90;;;-141.84;81.17;19366.75;5033796;28;20658;-62
2022/08/27 04:28:19;;;;;;;14.15;12.23;;;19.70;99.90;;;-141.84;81.15;19366.75;5033428;28;20233;-60
2022/08/27 04:30:47;;;;;;;12.68;11.25;;;19.70;99.90;;;-141.84;82.62;19356.59;5033746;28;20279;-61
2022/08/27 04:33:16;;;;;;;13.75;11.15;;;19.70;99.90;;;-141.84;81.63;19368.78;5033391;28;20237;-61
2022/08/27 04:35:44;;;;;;;13.13;11.60;;;19.70;99.90;;;-141.84;81.08;19358.63;5033613;28;20693;-61
2022/08/27 04:38:12;;;;;;;13.35;10.82;;;19.70;99.90;;;-141.84;81.02;19309.84;5033502;28;20249;-60
2022/08/27 04:43:29;;;;;;;13.13;10.52;;;19.70;99.90;;;-141.84;81.59;19346.44;5008115;28;20271;-61
2022/08/27 04:45:57;;;;;;;10.77;9.68;;;19.70;99.90;;;-141.84;82.33;19334.22;5033458;28;20766;-62
2022/08/27 04:48:26;;;;;;;11.63;10.43;;;19.70;99.90;;;-141.84;81.74;19342.34;5033287;28;20238;-62
2022/08/27 04:50:54;;;;;;;12.85;10.98;;;19.70;99.90;;;-141.84;81.48;19338.28;5033492;28;20249;-61
2022/08/27 04:53:22;;;;;;;12.27;10.85;;;19.70;99.90;;;-141.84;81.28;19309.84;5033025;28;20355;-61
2022/08/27 04:55:55;;;;;;;12.10;10.90;;;19.70;99.90;;;-141.84;80.99;19387.06;5033648;28;20264;-61
2022/08/27 04:58:26;;;;;;;15.68;11.52;;;19.80;99.90;;;-141.84;80.09;19395.19;5033497;28;20337;-61
2022/08/27 05:01:00;;;;;;;11.73;10.48;;;19.70;99.90;;;-141.84;80.66;19313.91;5033052;28;20265;-60
2022/08/27 05:03:28;;;;;;;11.63;10.40;;;19.80;99.90;;;-141.84;80.06;19389.09;5033099;28;20257;-62
2022/08/27 05:06:01;;;;;;;13.57;10.45;;;19.80;99.90;;;-141.84;80.95;19374.88;5033217;28;20307;-60
2022/08/27 05:08:31;;;;;;;14.25;10.68;;;19.80;99.90;;;-141.84;79.72;19415.50;5032951;28;20257;-62
2022/08/27 05:11:00;;;;;;;12.27;9.77;;;19.90;99.90;;;-141.84;80.50;19409.41;5032908;28;20627;-63
2022/08/27 05:13:30;;;;;;;13.88;10.35;;;19.90;99.90;;;-141.84;80.56;19376.91;5033047;28;20258;-63
2022/08/27 05:16:00;;;;;;;14.63;10.85;;;19.80;99.90;;;-141.84;80.45;19385.03;5032359;28;20226;-63
2022/08/27 05:18:29;;;;;;;10.77;9.70;;;19.80;99.90;;;-141.84;79.50;19423.66;5032582;28;20589;-64
2022/08/27 05:21:02;;;;;;;10.85;9.73;;;19.90;99.90;;;-141.84;79.90;19407.38;5032777;28;20222;-62
2022/08/27 05:23:31;;;;;;;11.40;10.23;;;19.90;99.90;;;-141.84;80.09;19415.50;5032210;28;20226;-63
2022/08/27 05:26:07;;;;;;;11.18;9.95;;;19.90;99.90;;;-141.84;79.29;19464.28;5032130;28;20273;-64
2022/08/27 05:28:35;;;;;;;13.52;10.55;;;20.00;99.90;;;-141.84;79.95;19443.97;5033130;28;20186;-63
2022/08/27 05:31:07;;;;;;;12.82;10.32;;;19.90;99.90;;;-141.84;78.15;19502.91;5032520;28;20679;-64
2022/08/27 05:33:38;;;;;;;15.07;11.20;;;20.00;99.90;;;-141.84;77.85;19486.66;5032358;28;20268;-64
2022/08/27 05:36:13;;;;;;;14.23;11.93;;;20.10;99.90;;;-141.84;77.83;19529.31;5032425;28;20739;-64
2022/08/27 05:38:42;;;;;;;16.60;11.90;;;20.10;99.90;;;-141.84;78.22;19498.84;5032342;28;20264;-63
2022/08/27 05:41:16;;;;;;;16.65;12.20;;;20.10;99.90;;;-141.84;76.77;19572.00;5032123;28;20248;-64
2022/08/27 05:43:46;;;;;;;15.32;11.27;;;20.30;99.90;;;-141.84;76.87;19574.03;5032826;28;20185;-63
2022/08/27 05:46:21;;;;;;;14.02;11.55;;;20.30;99.90;;;-141.84;77.06;19569.97;5032161;28;20237;-62
2022/08/27 05:48:51;;;;;;;16.05;11.57;;;20.30;99.90;;;-141.84;76.88;19578.09;5032310;28;20725;-62
2022/08/27 05:51:23;;;;;;;16.58;11.60;;;20.30;99.90;;;-141.84;76.46;19565.91;5032108;28;20268;-64
2022/08/27 05:53:57;;;;;;;14.88;11.68;;;20.30;99.90;;;-141.84;77.09;19545.56;5032200;28;20230;-64
2022/08/27 05:56:29;;;;;;;18.30;12.80;;;20.40;99.90;;;-141.84;76.44;19600.44;5032227;28;20245;-63
2022/08/27 06:01:48;;;;;;;17.65;12.57;;;20.50;99.90;;;-141.84;75.89;19628.91;5032641;28;20237;-63
2022/08/27 06:04:19;;;;;;;19.20;13.52;;;20.40;99.90;;;-141.84;75.88;19647.19;5031730;28;20242;-63
2022/08/27 06:06:48;;;;;;;20.08;14.15;;;20.40;99.90;;;-141.84;75.82;19630.94;5031869;28;20651;-63
2022/08/27 06:09:22;;;;;;;18.35;12.60;;;20.50;99.90;;;-141.84;76.59;19600.44;5031423;28;20295;-63
2022/08/27 06:11:54;;;;;;;21.65;13.88;;;20.40;99.90;;;-141.84;77.64;19561.84;5031690;28;20352;-63
2022/08/27 06:14:22;;;;;;;16.70;13.13;;;20.40;99.90;;;-141.84;77.53;19543.53;5031598;28;20241;-63
2022/08/27 06:16:51;;;;;;;18.08;11.82;;;20.40;99.90;;;-141.84;77.77;19569.97;5032360;28;20205;-62
2022/08/27 06:19:20;;;;;;;21.25;13.85;;;20.40;99.90;;;-141.84;77.44;19602.47;5031062;28;20312;-63
2022/08/27 06:21:49;;;;;;;15.90;13.18;;;20.40;99.90;;;-141.84;77.85;19572.00;5031412;28;20226;-64
2022/08/27 06:24:28;;;;;;;18.58;13.23;;;20.40;99.90;;;-141.84;77.55;19602.47;5031273;28;20300;-64
2022/08/27 06:26:58;;;;;;;19.80;15.02;;;20.40;99.90;;;-141.84;76.97;19618.75;5031546;28;20284;-63
2022/08/27 06:29:26;;;;;;;18.08;14.48;;;20.50;99.90;;;-141.84;77.57;19553.72;5030649;28;20265;-63
2022/08/27 06:31:55;;;;;;;24.15;16.67;;;20.50;99.90;;;-141.84;76.77;19639.06;5031790;28;20740;-63
2022/08/27 06:34:23;;;;;;;23.45;16.48;;;20.60;99.90;;;-141.84;75.96;19661.41;5031245;28;20620;-62
2022/08/27 06:36:52;;;;;;;19.60;14.98;;;20.70;99.90;;;-141.84;76.65;19700.03;5031428;28;20269;-61
2022/08/27 06:39:20;;;;;;;20.20;16.30;;;20.70;99.90;;;-141.84;77.19;19624.84;5030814;28;20229;-63
2022/08/27 06:41:49;;;;;;;19.30;15.88;;;20.70;99.90;;;-141.84;76.72;19663.44;5031146;28;20230;-62
2022/08/27 06:44:19;;;;;;;26.85;20.35;;;20.80;99.90;;;-141.84;75.86;19677.66;5031188;28;20237;-63
2022/08/27 06:46:47;;;;;;;23.67;17.58;;;20.80;99.90;;;-141.84;76.28;19667.50;5031789;28;20191;-62
2022/08/27 06:49:16;;;;;;;22.25;17.35;;;20.80;99.90;;;-141.84;76.90;19632.97;5030770;28;20249;-63
2022/08/27 06:51:47;;;;;;;20.85;17.23;;;20.80;99.90;;;-141.84;77.71;19645.16;5030771;28;20254;-63
2022/08/27 06:54:18;;;;;;;25.40;19.52;;;20.70;99.90;;;-141.84;77.16;19618.75;5030779;28;20264;-62
2022/08/27 06:56:48;;;;;;;30.45;20.55;;;20.80;99.90;;;-141.84;76.37;19700.03;5030799;28;20704;-62
2022/08/27 06:59:19;;;;;;;28.92;20.45;;;20.80;99.90;;;-141.84;76.34;19665.47;5030893;28;20204;-63
2022/08/27 07:01:50;;;;;;;26.85;20.08;;;20.90;99.90;;;-141.84;77.07;19645.16;5031522;28;20190;-61
2022/08/27 07:04:21;;;;;;;23.75;19.77;;;20.80;99.90;;;-141.84;77.14;19643.13;5030850;28;20645;-62
2022/08/27 07:07:00;;;;;;;30.38;22.48;;;20.80;99.90;;;-141.84;77.12;19665.47;5030853;28;20229;-61
2022/08/27 07:09:30;;;;;;;28.30;21.75;;;20.80;99.90;;;-141.84;76.53;19669.53;5030437;28;20229;-62
2022/08/27 07:11:59;;;;;;;30.77;23.35;;;20.80;99.90;;;-141.84;76.83;19669.53;5030459;28;20225;-62
2022/08/27 07:14:30;;;;;;;24.35;20.05;;;20.80;99.90;;;-141.84;78.22;19602.47;5030606;28;20250;-62
2022/08/27 07:17:07;;;;;;;30.75;21.50;;;20.80;99.90;;;-141.84;77.52;19639.06;5030945;28;20185;-61
2022/08/27 07:19:43;;;;;;;30.17;22.70;;;20.80;99.90;;;-141.84;77.09;19639.06;5031257;28;20209;-62
2022/08/27 07:22:11;;;;;;;32.35;22.95;;;20.80;99.90;;;-141.84;76.80;19643.13;5030487;28;20627;-62
2022/08/27 07:24:40;;;;;;;34.42;23.88;;;20.80;99.90;;;-141.84;76.83;19695.97;5030391;28;20295;-62
2022/08/27 07:27:09;;;;;;;28.02;20.27;;;20.80;99.90;;;-141.84;77.76;19628.91;5030077;28;20726;-62
2022/08/27 07:29:39;;;;;;;33.47;25.48;;;20.80;99.90;;;-141.84;78.64;19612.63;5030691;28;20241;-62
2022/08/27 07:32:07;;;;;;;31.25;22.10;;;20.80;99.90;;;-141.84;78.58;19590.28;5030363;28;20628;-61
2022/08/27 07:34:35;;;;;;;39.80;25.02;;;20.80;99.90;;;-141.84;77.95;19626.88;5030612;28;20283;-62
2022/08/27 07:37:03;;;;;;;40.85;26.23;;;20.80;99.90;;;-141.84;77.50;19635.00;5030234;28;20225;-62
2022/08/27 07:39:32;;;;;;;32.78;24.83;;;20.80;99.90;;;-141.84;78.18;19651.25;5031484;28;20249;-61
2022/08/27 07:44:48;;;;;;;37.15;24.85;;;20.80;99.90;;;-141.84;78.45;19600.44;5034255;28;20224;-62
2022/08/27 07:47:16;;;;;;;37.13;25.30;;;20.80;99.90;;;-141.84;77.69;19647.19;5034517;28;20604;-62
2022/08/27 07:49:44;;;;;;;36.20;24.00;;;20.80;99.90;;;-141.84;77.76;19630.94;5034488;28;20662;-63
2022/08/27 07:52:15;;;;;;;33.83;22.73;;;20.80;99.90;;;-141.84;78.96;19588.25;5034030;28;20265;-61
2022/08/27 07:54:44;;;;;;;34.28;23.33;;;20.70;99.90;;;-141.84;79.04;19594.34;5033883;28;20230;-61
2022/08/27 07:57:12;;;;;;;35.95;23.90;;;20.80;99.90;;;-141.84;79.97;19561.84;5034462;28;20226;-62
2022/08/27 07:59:40;;;;;;;39.42;24.08;;;20.70;99.90;;;-141.84;79.64;19563.88;5034087;28;20221;-62
2022/08/27 08:02:11;;;;;;;31.17;23.35;;;20.70;99.90;;;-141.84;79.81;19539.47;5033943;28;20233;-62
2022/08/27 08:04:39;;;;;;;29.92;21.83;;;20.70;99.90;;;-141.84;80.13;19519.16;5034393;28;20191;-63
2022/08/27 08:07:08;;;;;;;34.10;23.75;;;20.70;99.90;;;-141.84;80.65;19529.31;5034012;28;20764;-61
2022/08/27 08:09:36;;;;;;;30.40;22.85;;;20.60;99.90;;;-141.84;81.08;19523.22;5033857;28;20256;-62
2022/08/27 08:12:06;;;;;;;32.33;22.85;;;20.60;99.90;;;-141.84;80.90;19519.16;5033701;28;20258;-62
2022/08/27 08:14:35;;;;;;;33.30;23.30;;;20.70;99.90;;;-141.84;80.46;19541.50;5033645;28;20261;-62
2022/08/27 08:17:04;;;;;;;33.15;23.33;;;20.70;99.90;;;-141.84;80.69;19541.50;5033681;28;20248;-62
2022/08/27 08:19:39;;;;;;;31.13;21.35;;;20.70;99.90;;;-141.84;80.06;19549.63;5034053;28;20361;-62
2022/08/27 08:22:07;;;;;;;30.50;20.98;;;20.80;99.90;;;-141.84;80.62;19549.63;5033658;28;20312;-62
2022/08/27 08:24:36;;;;;;;28.88;22.23;;;20.80;99.90;;;-141.84;80.81;19527.28;5033480;28;20254;-62
2022/08/27 08:27:05;;;;;;;27.25;20.20;;;20.90;99.90;;;-141.84;78.38;19606.53;5033304;28;20315;-62
2022/08/27 08:29:36;;;;;;;27.65;20.33;;;21.00;99.90;;;-141.84;78.86;19616.72;5033852;28;20276;-62
2022/08/27 08:32:05;;;;;;;32.05;21.38;;;21.00;99.90;;;-141.84;78.69;19614.66;5033199;28;20677;-63
2022/08/27 08:34:35;;;;;;;30.55;21.67;;;21.00;99.90;;;-141.84;78.39;19624.84;5033780;28;20218;-61
2022/08/27 08:37:06;;;;;;;25.45;20.23;;;21.00;99.90;;;-141.84;78.71;19653.28;5033141;28;20230;-61
2022/08/27 08:39:37;;;;;;;34.67;23.10;;;21.10;99.90;;;-141.84;76.83;19677.66;5033497;28;20275;-61
2022/08/27 08:42:17;;;;;;;25.55;19.48;;;21.20;99.90;;;-141.84;77.57;19667.50;5033064;28;20222;-62
2022/08/27 08:44:52;;;;;;;30.70;20.48;;;21.20;99.90;;;-141.84;76.33;19758.97;5033223;28;20222;-60
2022/08/27 08:47:26;;;;;;;24.60;19.73;;;21.50;99.90;;;-141.84;76.60;19712.22;5033455;28;20221;-59
2022/08/27 08:50:07;;;;;;;29.65;21.42;;;21.40;99.90;;;-141.84;74.73;19811.81;5033208;28;20209;-62
2022/08/27 08:52:50;;;;;;;26.50;20.05;;;21.50;99.90;;;-141.84;75.10;19821.97;5033210;28;20240;-60
2022/08/27 08:55:35;;;;;;;24.35;18.52;;;21.50;99.90;;;-141.84;75.93;19779.28;5032883;28;20299;-60
2022/08/27 08:58:19;;;;;;;25.13;19.90;;;21.60;99.90;;;-141.84;74.49;19848.38;5032796;28;20234;-58
2022/08/27 09:00:56;;;;;;;23.77;19.67;;;21.70;99.90;;;-141.84;73.35;19925.63;5033039;28;20221;-60
2022/08/27 09:03:25;;;;;;;20.10;16.73;;;21.80;99.90;;;-141.84;73.90;19889.03;5033048;28;20233;-60
2022/08/27 09:06:02;;;;;;;23.27;16.27;;;21.90;99.90;;;-141.84;73.26;19907.31;5032942;28;20253;-60
2022/08/27 09:08:35;;;;;;;20.23;17.48;;;21.90;99.90;;;-141.84;74.33;19913.44;5032781;28;20786;-59
2022/08/27 09:11:23;;;;;;;15.68;14.05;;;21.90;99.90;;;-141.84;74.77;19882.94;5032708;28;20186;-60
2022/08/27 09:13:58;;;;;;;17.88;15.52;;;21.80;99.90;;;-141.84;74.25;19891.06;5033231;28;20333;-60
2022/08/27 09:16:27;;;;;;;17.33;14.65;;;22.00;99.90;;;-141.84;74.03;19911.41;5052440;28;20246;-60
2022/08/27 09:18:55;;;;;;;16.60;14.90;;;22.00;99.90;;;-141.84;73.89;19899.19;5052624;28;20237;-60
2022/08/27 09:21:40;;;;;;;16.23;13.73;;;21.90;99.90;;;-141.84;74.64;19878.88;5052692;28;20225;-60
2022/08/27 09:24:25;;;;;;;17.30;14.65;;;22.00;99.90;;;-141.84;74.19;19913.44;5052168;28;20322;-59
2022/08/27 09:26:54;;;;;;;15.25;13.15;;;22.00;99.90;;;-141.84;73.29;19931.72;5051966;28;20691;-61
2022/08/27 09:29:28;;;;;;;16.42;14.70;;;22.10;99.90;;;-141.84;73.22;19945.94;5052352;28;20221;-60
2022/08/27 09:32:00;;;;;;;15.35;13.75;;;22.10;99.90;;;-141.84;74.85;19850.41;5052581;28;20535;-62
2022/08/27 09:34:35;;;;;;;13.60;12.18;;;22.00;99.90;;;-141.84;75.10;19893.09;5052548;28;20241;-60
2022/08/27 09:37:10;;;;;;;15.13;12.32;;;21.90;99.90;;;-141.84;74.21;19911.41;5052102;28;20712;-61
2022/08/27 09:39:52;;;;;;;14.48;12.18;;;21.90;99.90;;;-141.84;73.78;19915.47;5052326;28;20249;-61
2022/08/27 09:42:30;;;;;;;13.75;11.85;;;21.90;99.90;;;-141.84;74.80;19882.94;5051995;28;20304;-61
2022/08/27 09:44:59;;;;;;;15.63;12.25;;;21.80;99.90;;;-141.84;75.05;19872.78;5052240;28;20217;-62
2022/08/27 09:47:27;;;;;;;14.30;12.80;;;21.80;99.90;;;-141.84;74.77;19868.72;5052014;28;20221;-59
2022/08/27 09:50:09;;;;;;;13.73;11.80;;;21.80;99.90;;;-141.84;74.90;19809.78;5052422;28;20197;-62
2022/08/27 09:52:50;;;;;;;11.10;9.90;;;21.70;99.90;;;-141.84;75.26;19771.16;5052219;28;20704;-61
2022/08/27 09:55:36;;;;;;;10.38;9.38;;;21.60;99.90;;;-141.84;77.42;19730.50;5051648;28;20271;-60
2022/08/27 09:58:18;;;;;;;11.50;9.18;;;21.40;99.90;;;-141.84;78.04;19691.91;5051603;28;20221;-60
2022/08/27 10:00:51;;;;;;;8.55;7.65;;;21.30;99.90;;;-141.84;79.12;19637.03;5051793;28;20225;-60
2022/08/27 10:03:22;;;;;;;10.25;8.27;;;21.20;99.90;;;-141.84;79.17;19659.38;5050460;28;20617;-61
2022/08/27 10:05:53;;;;;;;10.82;9.20;;;21.20;99.90;;;-141.84;79.21;19643.13;5051700;28;20256;-61
2022/08/27 10:08:29;;;;;;;10.70;9.20;;;21.00;99.90;;;-141.84;79.54;19572.00;5051598;28;20225;-60
2022/08/27 10:11:04;;;;;;;10.40;9.25;;;20.90;99.90;;;-141.84;79.90;19574.03;5051810;28;20189;-60
2022/08/27 10:13:52;;;;;;;13.35;10.60;;;20.80;99.90;;;-141.84;80.15;19563.88;5051704;28;20225;-59
2022/08/27 10:17:02;;;;;;;11.70;10.48;;;20.70;99.90;;;-141.84;80.14;19555.75;5051420;28;20279;-59
2022/08/27 10:19:48;;;;;;;11.05;8.90;;;20.60;99.90;;;-141.84;80.97;19521.19;5009428;28;20219;-61
2022/08/27 10:22:31;;;;;;;12.25;10.23;;;20.60;99.90;;;-141.84;82.38;19511.03;5050400;28;20781;-61